Time;durP1;ratioP1;P1;durP2;ratioP2;P2;SDS_P1;SDS_P2;PMS_P1;PMS_P2;Temp;Humidity;BMP_temperature;BMP_pressure;BME280_temperature;BME280_humidity;BME280_pressure;Samples;Min_cycle;Max_cycle;Signal;HPM_P1;HPM_P2
2023/10/08 00:02:10;;;;;;;4.00;3.03;;;;;;;19.17;38.06;94844.88;5036384;28;20210;-82
2023/10/08 00:04:37;;;;;;;3.50;2.95;;;;;;;19.12;38.18;94846.63;5037508;28;20201;-81
2023/10/08 00:07:07;;;;;;;3.80;2.90;;;;;;;19.09;38.37;94847.91;5037789;28;20198;-83
2023/10/08 00:09:36;;;;;;;3.63;3.13;;;;;;;19.05;38.61;94846.06;5038022;28;20272;-81
2023/10/08 00:12:04;;;;;;;5.22;3.15;;;;;;;19.02;38.60;94851.78;5054137;28;20597;-81
2023/10/08 00:14:31;;;;;;;3.88;3.17;;;;;;;19.01;38.87;94855.41;5057460;28;20213;-81
2023/10/08 00:17:00;;;;;;;3.72;2.97;;;;;;;19.02;38.90;94863.00;5041924;28;20228;-80
2023/10/08 00:19:33;;;;;;;3.20;2.75;;;;;;;19.02;38.59;94855.19;5036531;28;20230;-82
2023/10/08 00:22:04;;;;;;;3.88;2.67;;;;;;;19.02;38.84;94852.56;5037668;28;20220;-81
2023/10/08 00:24:33;;;;;;;3.70;3.10;;;;;;;19.08;38.90;94864.59;5038748;28;20342;-81
2023/10/08 00:27:00;;;;;;;5.35;3.28;;;;;;;19.12;38.86;94857.88;5032749;28;20230;-81
2023/10/08 00:29:28;;;;;;;3.80;2.70;;;;;;;19.14;38.94;94860.22;5037567;28;20637;-81
2023/10/08 00:31:56;;;;;;;4.93;3.05;;;;;;;19.18;38.73;94859.50;5037429;28;20620;-81
2023/10/08 00:34:24;;;;;;;5.28;3.08;;;;;;;19.21;38.88;94850.38;5032226;28;20221;-81
2023/10/08 00:36:52;;;;;;;3.65;2.88;;;;;;;19.17;38.90;94846.69;5036413;28;20825;-80
2023/10/08 00:39:23;;;;;;;3.60;2.97;;;;;;;19.15;38.65;94839.09;5036791;28;20218;-81
2023/10/08 00:41:51;;;;;;;5.05;3.25;;;;;;;19.23;38.72;94838.66;5027037;28;20195;-82
2023/10/08 00:44:22;;;;;;;3.80;2.97;;;;;;;19.29;38.68;94840.25;5025284;28;20232;-81
2023/10/08 00:46:51;;;;;;;3.25;2.95;;;;;;;19.31;38.50;94822.53;5035765;28;20206;-81
2023/10/08 00:49:38;;;;;;;3.20;2.83;;;;;;;19.36;38.07;94813.97;5017158;28;20226;-81
2023/10/08 00:52:26;;;;;;;3.70;3.10;;;;;;;19.44;38.27;94821.31;5031324;28;20262;-81
2023/10/08 00:55:06;;;;;;;4.00;2.88;;;;;;;19.45;38.15;94809.03;5035949;28;20230;-81
2023/10/08 00:57:36;;;;;;;4.53;2.70;;;;;;;19.45;38.09;94796.78;5036582;28;20209;-82
2023/10/08 01:00:06;;;;;;;5.70;3.00;;;;;;;19.51;38.23;94808.09;5036549;28;20233;-81
2023/10/08 01:02:45;;;;;;;7.05;2.97;;;;;;;19.59;38.06;94805.81;5036196;28;20202;-82
2023/10/08 01:05:18;;;;;;;4.97;3.03;;;;;;;19.53;37.98;94785.13;5036151;28;20302;-83
2023/10/08 01:07:45;;;;;;;3.30;2.65;;;;;;;19.57;37.91;94789.59;5034688;28;20854;-81
2023/10/08 01:10:13;;;;;;;6.60;3.08;;;;;;;19.56;37.96;94790.63;5036351;28;20234;-81
2023/10/08 01:12:54;;;;;;;4.45;2.92;;;;;;;19.57;37.96;94789.59;5035610;28;20727;-80
2023/10/08 01:15:23;;;;;;;4.30;2.80;;;;;;;19.57;37.72;94781.75;5036608;28;20205;-82
2023/10/08 01:17:58;;;;;;;6.28;3.20;;;;;;;19.62;37.66;94776.59;5036085;28;20226;-81
2023/10/08 01:20:37;;;;;;;4.60;2.95;;;;;;;19.65;37.49;94762.19;5027586;28;20314;-82
2023/10/08 01:23:09;;;;;;;6.03;3.20;;;;;;;19.65;37.43;94762.19;5038027;28;20196;-80
2023/10/08 01:25:38;;;;;;;4.40;3.05;;;;;;;19.63;37.30;94762.44;5038135;28;20265;-81
2023/10/08 01:28:14;;;;;;;3.83;2.60;;;;;;;19.66;37.19;94741.06;5040765;28;20221;-82
2023/10/08 01:30:42;;;;;;;6.25;3.33;;;;;;;19.65;36.94;94723.81;5036819;28;20218;-82
2023/10/08 01:33:12;;;;;;;4.25;2.97;;;;;;;19.65;36.74;94708.16;5035046;28;20617;-82
2023/10/08 01:35:39;;;;;;;4.85;3.03;;;;;;;19.70;36.93;94711.81;5035030;28;20201;-81
2023/10/08 01:38:09;;;;;;;4.35;3.03;;;;;;;19.66;36.56;94698.50;5033577;28;20292;-82
2023/10/08 01:40:36;;;;;;;6.05;3.65;;;;;;;19.64;36.54;94690.91;5034084;28;20225;-80
2023/10/08 01:43:04;;;;;;;5.28;3.08;;;;;;;19.62;36.49;94682.56;5031398;28;20202;-81
2023/10/08 01:45:32;;;;;;;9.93;3.45;;;;;;;19.65;36.30;94671.59;5034141;28;20238;-81
2023/10/08 01:47:58;;;;;;;3.72;3.10;;;;;;;19.67;36.61;94668.72;5035169;28;20234;-81
2023/10/08 01:50:25;;;;;;;5.00;2.95;;;;;;;19.70;36.38;94667.44;5035041;28;20222;-80
2023/10/08 01:52:52;;;;;;;3.60;2.60;;;;;;;19.71;36.18;94675.00;5034857;28;20255;-81
2023/10/08 01:55:22;;;;;;;6.63;3.00;;;;;;;19.69;36.14;94664.03;5033068;28;20213;-81
2023/10/08 01:57:49;;;;;;;4.80;3.05;;;;;;;19.66;36.11;94654.09;5035347;28;20213;-82
2023/10/08 02:00:19;;;;;;;4.78;2.92;;;;;;;19.72;36.30;94678.41;5034847;28;20214;-81
2023/10/08 02:02:45;;;;;;;4.82;2.80;;;;;;;19.69;36.14;94664.03;5035457;28;20587;-81
2023/10/08 02:05:14;;;;;;;4.07;3.10;;;;;;;19.68;36.29;94667.69;5035258;28;20752;-82
2023/10/08 02:07:41;;;;;;;4.20;3.00;;;;;;;19.67;36.32;94668.72;5035340;28;20274;-81
2023/10/08 02:10:10;;;;;;;4.30;3.20;;;;;;;19.66;36.38;94673.16;5033692;28;20233;-81
2023/10/08 02:12:38;;;;;;;4.15;3.00;;;;;;;19.68;36.46;94675.50;5035814;28;20237;-81
2023/10/08 02:15:06;;;;;;;4.88;3.17;;;;;;;19.65;36.45;94670.78;5034170;28;20273;-81
2023/10/08 02:17:33;;;;;;;4.15;3.13;;;;;;;19.64;36.69;94684.91;5026325;28;20206;-81
2023/10/08 02:19:59;;;;;;;4.40;2.88;;;;;;;19.67;36.68;94690.41;5034602;28;20233;-81
2023/10/08 02:22:27;;;;;;;3.70;2.78;;;;;;;19.70;36.81;94693.53;5034775;28;20575;-81
2023/10/08 02:24:53;;;;;;;5.15;2.65;;;;;;;19.70;36.90;94698.78;5049370;28;20186;-80
2023/10/08 02:27:20;;;;;;;5.43;2.78;;;;;;;19.67;36.76;94685.19;5033430;28;20210;-81
2023/10/08 02:29:47;;;;;;;5.68;3.00;;;;;;;19.69;36.93;94686.75;5034182;28;20214;-81
2023/10/08 02:32:14;;;;;;;3.55;2.75;;;;;;;19.71;37.03;94692.50;5035230;28;20231;-81
2023/10/08 02:34:41;;;;;;;3.65;2.80;;;;;;;19.73;36.97;94696.44;5033772;28;20235;-81
2023/10/08 02:37:07;;;;;;;4.75;3.00;;;;;;;19.70;36.95;94693.53;5034472;28;20213;-82
2023/10/08 02:39:34;;;;;;;5.40;2.78;;;;;;;19.71;36.84;94695.91;5034162;28;20244;-80
2023/10/08 02:42:01;;;;;;;3.55;2.72;;;;;;;19.70;37.00;94698.78;5024314;28;20210;-81
2023/10/08 02:44:28;;;;;;;3.33;2.88;;;;;;;19.71;37.05;94700.34;5032811;28;20269;-82
2023/10/08 02:46:56;;;;;;;5.05;3.17;;;;;;;19.77;36.80;94699.34;5034166;28;20210;-81
2023/10/08 02:49:23;;;;;;;4.20;2.70;;;;;;;19.78;36.87;94696.47;5035276;28;20240;-81
2023/10/08 02:51:51;;;;;;;4.18;2.90;;;;;;;19.76;36.83;94688.09;5034506;28;20195;-81
2023/10/08 02:54:18;;;;;;;4.63;3.08;;;;;;;19.77;36.97;94691.50;5033941;28;20218;-80
2023/10/08 02:56:45;;;;;;;3.70;2.75;;;;;;;19.79;36.88;94692.81;5034430;28;20203;-81
2023/10/08 02:59:13;;;;;;;4.35;2.92;;;;;;;19.82;36.93;94684.44;5032610;28;20230;-82
2023/10/08 03:01:40;;;;;;;4.05;3.22;;;;;;;19.80;36.69;94678.72;5034297;28;20234;-81
2023/10/08 03:04:17;;;;;;;9.32;8.35;;;;;;;19.81;36.97;94677.69;5034985;28;20197;-80
2023/10/08 03:06:44;;;;;;;3.83;2.78;;;;;;;19.82;36.86;94674.00;5034633;28;20202;-82
2023/10/08 03:09:13;;;;;;;7.75;3.17;;;;;;;19.83;36.75;94665.13;5035170;28;20309;-81
2023/10/08 03:11:46;;;;;;;4.97;3.30;;;;;;;19.83;36.82;94672.16;5034440;28;20208;-81
2023/10/08 03:14:15;;;;;;;5.70;2.53;;;;;;;19.84;36.62;94660.69;5025661;28;20571;-81
2023/10/08 03:16:41;;;;;;;3.95;2.90;;;;;;;19.81;36.64;94653.38;5032419;28;20409;-82
2023/10/08 03:19:09;;;;;;;7.35;3.15;;;;;;;19.90;36.68;94664.88;5033534;28;20230;-81
2023/10/08 03:21:48;;;;;;;3.90;2.80;;;;;;;19.90;36.44;94650.00;5034124;28;20209;-81
2023/10/08 03:24:29;;;;;;;5.53;2.95;;;;;;;19.90;36.25;94650.00;5036396;28;20192;-81
2023/10/08 03:27:05;;;;;;;3.70;2.50;;;;;;;19.89;36.53;94643.19;5034253;28;20208;-83
2023/10/08 03:29:33;;;;;;;5.18;2.80;;;;;;;19.92;36.39;94641.91;5034654;28;20224;-81
2023/10/08 03:32:05;;;;;;;3.47;2.53;;;;;;;19.89;36.42;94635.38;5033065;28;20209;-80
2023/10/08 03:34:34;;;;;;;3.22;2.67;;;;;;;19.92;36.37;94626.22;5032668;28;20272;-82
2023/10/08 03:37:05;;;;;;;4.82;2.83;;;;;;;19.92;36.16;94623.63;5033850;28;20236;-81
2023/10/08 03:39:50;;;;;;;4.15;2.97;;;;;;;19.90;36.25;94620.47;5033753;28;20225;-82
2023/10/08 03:42:20;;;;;;;3.45;2.75;;;;;;;19.94;36.28;94621.53;5020157;28;20214;-81
2023/10/08 03:44:50;;;;;;;4.22;2.92;;;;;;;19.99;36.40;94627.56;5029612;28;20195;-81
2023/10/08 03:47:18;;;;;;;6.72;3.28;;;;;;;19.98;36.44;94643.50;5031359;28;20217;-81
2023/10/08 03:49:46;;;;;;;6.28;3.10;;;;;;;19.96;36.00;94638.53;5033827;28;20224;-81
2023/10/08 03:52:13;;;;;;;4.45;2.88;;;;;;;20.00;36.33;94638.81;5033710;28;20209;-81
2023/10/08 03:54:48;;;;;;;4.45;2.55;;;;;;;19.96;36.32;94630.69;5033142;28;20710;-81
2023/10/08 03:57:35;;;;;;;6.15;2.55;;;;;;;19.98;36.37;94633.84;5042663;28;20197;-81
2023/10/08 04:00:09;;;;;;;4.15;2.78;;;;;;;19.93;36.36;94628.59;5044488;28;20280;-81
2023/10/08 04:02:41;;;;;;;10.07;2.70;;;;;;;19.98;36.34;94630.44;5037960;28;20208;-81
2023/10/08 04:05:19;;;;;;;5.15;2.90;;;;;;;19.98;36.52;94644.28;5036344;28;20687;-81
2023/10/08 04:08:05;;;;;;;4.63;2.53;;;;;;;20.00;36.61;94647.44;5038020;28;20809;-81
2023/10/08 04:11:07;;;;;;;5.55;2.83;;;;;;;19.99;36.79;94658.13;5028784;28;20214;-82
2023/10/08 04:13:26;;;;;;;6.00;3.20;;;;;;;19.95;36.91;94676.16;5036306;28;20637;-81
2023/10/08 04:15:55;;;;;;;5.82;3.00;;;;;;;19.96;36.70;94663.88;5035650;28;20198;-81
2023/10/08 04:18:21;;;;;;;6.72;3.05;;;;;;;19.94;36.88;94673.78;5036583;28;20202;-81
2023/10/08 04:21:00;;;;;;;5.75;2.90;;;;;;;19.92;36.86;94674.03;5035525;28;20230;-81
2023/10/08 04:23:28;;;;;;;8.55;3.38;;;;;;;19.93;36.82;94677.44;5042896;28;20276;-81
2023/10/08 04:25:55;;;;;;;4.88;2.70;;;;;;;19.92;36.92;94674.03;5056300;28;20288;-81
2023/10/08 04:28:22;;;;;;;6.88;3.30;;;;;;;19.92;36.96;94666.22;5056439;28;20419;-80
2023/10/08 04:30:50;;;;;;;5.05;2.65;;;;;;;19.92;36.90;94676.66;5056329;28;20767;-81
2023/10/08 04:33:19;;;;;;;7.68;3.17;;;;;;;19.87;37.02;94688.91;5049188;28;20203;-82
2023/10/08 04:35:51;;;;;;;4.97;2.92;;;;;;;19.89;37.03;94679.00;5031281;28;20218;-81
2023/10/08 04:38:21;;;;;;;5.45;2.75;;;;;;;19.90;37.06;94683.19;5030009;28;20236;-81
2023/10/08 04:40:52;;;;;;;6.60;3.17;;;;;;;19.88;37.02;94682.66;5036411;28;20284;-81
2023/10/08 04:43:24;;;;;;;6.18;3.35;;;;;;;19.90;37.08;94677.94;5035339;28;20230;-81
2023/10/08 04:45:51;;;;;;;3.85;2.60;;;;;;;19.92;37.25;94681.09;5037537;28;20210;-81
2023/10/08 04:48:20;;;;;;;3.70;3.08;;;;;;;19.85;37.15;94672.69;5037004;28;20206;-80
2023/10/08 04:50:57;;;;;;;6.90;3.28;;;;;;;19.88;37.19;94680.81;5036674;28;20204;-81
2023/10/08 04:53:31;;;;;;;6.00;3.00;;;;;;;19.87;37.60;94697.53;5034617;28;20202;-80
2023/10/08 04:56:02;;;;;;;5.78;3.05;;;;;;;19.85;37.32;94698.81;5035778;28;20228;-80
2023/10/08 04:58:33;;;;;;;4.95;3.08;;;;;;;19.88;37.33;94696.50;5035554;28;20205;-81
2023/10/08 05:01:17;;;;;;;6.70;3.00;;;;;;;19.87;37.34;94696.75;5035814;28;20218;-81
2023/10/08 05:03:56;;;;;;;5.45;3.03;;;;;;;19.91;37.38;94708.25;5033852;28;20226;-82
2023/10/08 05:06:39;;;;;;;7.80;3.25;;;;;;;19.92;37.51;94715.06;5026312;28;20248;-81
2023/10/08 05:09:22;;;;;;;6.40;3.22;;;;;;;19.87;37.34;94707.19;5030816;28;20228;-81
2023/10/08 05:12:08;;;;;;;6.30;2.90;;;;;;;19.84;37.25;94702.47;5041256;28;20193;-81
2023/10/08 05:14:38;;;;;;;10.02;3.20;;;;;;;19.81;37.23;94690.75;5039452;28;20259;-81
2023/10/08 05:17:09;;;;;;;6.72;3.00;;;;;;;19.82;37.21;94692.28;5035425;28;20241;-81
2023/10/08 05:19:48;;;;;;;5.80;2.80;;;;;;;19.79;37.30;94703.25;5035167;28;20276;-81
2023/10/08 05:22:18;;;;;;;6.38;3.17;;;;;;;19.83;37.57;94713.97;5035532;28;20228;-81
2023/10/08 05:25:07;;;;;;;4.85;2.90;;;;;;;19.84;37.15;94711.09;5033497;28;20285;-80
2023/10/08 05:27:56;;;;;;;7.15;3.00;;;;;;;19.85;37.09;94706.66;5034382;28;20201;-80
2023/10/08 05:30:28;;;;;;;5.85;3.15;;;;;;;19.88;37.32;94729.66;5034802;28;20218;-81
2023/10/08 05:33:11;;;;;;;5.40;2.85;;;;;;;19.88;37.51;94745.34;5033787;28;20706;-80
2023/10/08 05:35:54;;;;;;;6.40;3.05;;;;;;;19.89;37.59;94759.97;5035665;28;20206;-80
2023/10/08 05:38:22;;;;;;;8.30;3.35;;;;;;;19.89;43.58;95117.94;5031641;28;20285;-84
2023/10/08 05:41:04;;;;;;;9.00;3.42;;;;;;;19.97;44.60;95180.22;5028683;28;20256;-84
2023/10/08 05:43:49;;;;;;;25.88;3.88;;;;;;;20.05;43.59;95151.03;5026834;28;20635;-81
2023/10/08 05:49:03;;;;;;;7.05;3.70;;;;;;;19.85;40.09;94944.41;5035317;28;20228;-81
2023/10/08 05:51:44;;;;;;;10.15;3.42;;;;;;;19.80;40.15;94953.00;5035342;28;20198;-80
2023/10/08 05:54:24;;;;;;;5.50;3.13;;;;;;;19.72;39.93;94976.19;5034635;28;20200;-81
2023/10/08 05:57:06;;;;;;;7.07;3.42;;;;;;;19.64;39.61;94938.22;5032933;28;20551;-81
2023/10/08 05:59:38;;;;;;;4.85;2.97;;;;;;;19.54;40.62;95019.88;5016635;28;20280;-81
2023/10/08 06:02:25;;;;;;;5.53;3.55;;;;;;;19.46;39.93;94975.91;5029977;28;20281;-81
2023/10/08 06:05:09;;;;;;;6.22;3.40;;;;;;;19.35;39.89;94969.00;5030175;28;20223;-80
2023/10/08 06:07:47;;;;;;;5.00;3.20;;;;;;;19.35;39.67;94976.84;5026119;28;20750;-81
2023/10/08 06:10:41;;;;;;;3.50;2.90;;;;;;;19.37;40.08;95007.94;5033139;28;20254;-81
2023/10/08 06:13:06;;;;;;;4.70;3.03;;;;;;;19.35;40.60;95012.59;5032005;28;20203;-81
2023/10/08 06:15:44;;;;;;;3.65;2.65;;;;;;;19.29;40.73;95030.03;5031865;28;20293;-82
2023/10/08 06:18:09;;;;;;;4.35;3.03;;;;;;;19.20;40.61;95014.03;5032251;28;20199;-82
2023/10/08 06:20:39;;;;;;;4.05;3.20;;;;;;;19.18;40.21;94992.59;5029892;28;20220;-80
2023/10/08 06:23:07;;;;;;;4.28;3.10;;;;;;;19.26;40.34;94991.34;5034693;28;20224;-81
2023/10/08 06:25:44;;;;;;;4.68;3.17;;;;;;;19.28;40.48;95005.75;5039867;28;20202;-81
2023/10/08 06:28:14;;;;;;;5.50;2.95;;;;;;;19.26;41.30;95049.56;5038361;28;20202;-81
2023/10/08 06:30:41;;;;;;;4.22;3.03;;;;;;;19.31;41.27;95067.13;5019987;28;20223;-82
2023/10/08 06:33:08;;;;;;;4.55;2.90;;;;;;;19.36;41.52;95093.28;5033396;28;20198;-82
2023/10/08 06:35:35;;;;;;;4.63;2.97;;;;;;;19.50;41.03;95050.13;5038582;28;20213;-82
2023/10/08 06:38:07;;;;;;;4.25;3.20;;;;;;;19.60;40.95;95055.47;5039360;28;20341;-82
2023/10/08 06:40:43;;;;;;;5.65;2.83;;;;;;;19.59;40.79;95040.84;5039260;28;20244;-82
2023/10/08 06:43:14;;;;;;;4.40;3.00;;;;;;;19.40;40.51;95021.28;5025827;28;20193;-82
2023/10/08 06:45:44;;;;;;;6.20;3.17;;;;;;;19.52;40.45;95018.56;5037286;28;20218;-82
2023/10/08 06:48:17;;;;;;;4.25;3.10;;;;;;;19.97;40.16;95015.59;5039403;28;20214;-82
2023/10/08 06:50:44;;;;;;;3.85;3.00;;;;;;;20.28;40.23;95027.84;5038465;28;20230;-82
2023/10/08 06:53:13;;;;;;;4.35;3.25;;;;;;;20.21;39.95;95011.56;5038414;28;20686;-81
2023/10/08 06:55:41;;;;;;;4.40;3.15;;;;;;;20.15;39.76;94991.69;5037890;28;20230;-81
2023/10/08 06:58:08;;;;;;;3.83;2.65;;;;;;;20.36;39.95;95005.69;5031651;28;20293;-82
2023/10/08 07:00:39;;;;;;;4.53;3.05;;;;;;;20.63;39.25;95003.00;5033756;28;20230;-81
2023/10/08 07:03:10;;;;;;;5.65;3.25;;;;;;;20.75;38.98;94971.41;5037454;28;20268;-81
2023/10/08 07:05:40;;;;;;;5.63;3.33;;;;;;;20.84;39.09;94978.50;5036285;28;20698;-82
2023/10/08 07:08:08;;;;;;;7.20;3.03;;;;;;;20.99;38.54;94972.53;5037498;28;20377;-81
2023/10/08 07:10:35;;;;;;;5.63;3.33;;;;;;;21.08;38.57;94954.53;5037468;28;20218;-81
2023/10/08 07:13:02;;;;;;;4.93;2.78;;;;;;;21.23;38.27;94938.88;5036464;28;20213;-82
2023/10/08 07:15:29;;;;;;;5.65;3.10;;;;;;;21.20;38.71;94942.00;5037091;28;20201;-81
2023/10/08 07:17:56;;;;;;;4.05;2.97;;;;;;;21.07;38.58;94958.97;5034929;28;20229;-83
2023/10/08 07:20:25;;;;;;;5.78;3.22;;;;;;;20.98;38.93;94973.59;5034464;28;20234;-81
2023/10/08 07:22:54;;;;;;;7.43;3.55;;;;;;;20.83;39.28;94976.94;5035940;28;20198;-81
2023/10/08 07:25:21;;;;;;;5.60;3.10;;;;;;;21.03;39.44;94999.78;5056419;28;20197;-82
2023/10/08 07:27:48;;;;;;;6.25;3.03;;;;;;;21.19;38.94;94983.09;5057023;28;20208;-81
2023/10/08 07:30:26;;;;;;;7.88;3.28;;;;;;;21.43;38.52;94956.47;5056488;28;20221;-81
2023/10/08 07:32:54;;;;;;;5.50;3.00;;;;;;;21.75;39.26;94995.53;5043903;28;20206;-82
2023/10/08 07:35:25;;;;;;;7.47;3.22;;;;;;;21.54;38.63;94968.56;5039683;28;20679;-83
2023/10/08 07:37:54;;;;;;;6.07;3.05;;;;;;;21.30;38.98;94955.16;5039947;28;20202;-83
2023/10/08 07:40:27;;;;;;;7.07;3.08;;;;;;;21.15;39.21;94968.97;5030689;28;20214;-81
2023/10/08 07:42:54;;;;;;;6.90;3.20;;;;;;;21.09;39.77;95003.22;5028997;28;20218;-81
2023/10/08 07:45:21;;;;;;;5.45;3.15;;;;;;;21.01;39.89;95012.34;5032843;28;20242;-83
2023/10/08 07:47:48;;;;;;;7.22;3.22;;;;;;;20.89;40.18;95025.66;5041136;28;20281;-82
2023/10/08 07:50:16;;;;;;;7.43;4.03;;;;;;;20.84;40.27;95030.84;5040532;28;20440;-81
2023/10/08 07:52:44;;;;;;;9.38;6.43;;;;;;;20.79;40.55;95062.22;5039620;28;20234;-81
2023/10/08 07:55:17;;;;;;;7.22;4.00;;;;;;;20.80;40.58;95065.63;5030916;28;20237;-81
2023/10/08 07:57:43;;;;;;;6.28;3.10;;;;;;;20.69;41.06;95086.50;5039037;28;20233;-81
2023/10/08 08:00:18;;;;;;;5.40;3.80;;;;;;;20.65;41.65;95110.78;5039411;28;20226;-82
2023/10/08 08:02:45;;;;;;;7.88;3.50;;;;;;;20.64;41.39;95107.38;5035987;28;20202;-83
2023/10/08 08:05:16;;;;;;;5.60;3.30;;;;;;;20.57;41.72;95134.81;5039017;28;20862;-81
2023/10/08 08:07:45;;;;;;;10.00;3.20;;;;;;;20.57;41.67;95130.38;5052528;28;20297;-82
2023/10/08 08:10:14;;;;;;;7.22;3.22;;;;;;;20.52;41.54;95117.25;5056123;28;20226;-81
2023/10/08 08:12:40;;;;;;;6.00;3.20;;;;;;;20.54;42.09;95151.78;5040127;28;20209;-82
2023/10/08 08:15:14;;;;;;;6.35;3.30;;;;;;;20.58;41.78;95139.00;5038785;28;20198;-82
2023/10/08 08:17:41;;;;;;;7.18;3.50;;;;;;;20.57;41.55;95124.34;5040088;28;20231;-82
2023/10/08 08:20:17;;;;;;;5.88;3.05;;;;;;;20.55;41.78;95121.97;5040450;28;20369;-81
2023/10/08 08:22:49;;;;;;;8.90;3.13;;;;;;;20.60;41.60;95121.22;5040451;28;20214;-81
2023/10/08 08:25:26;;;;;;;6.78;3.08;;;;;;;20.63;41.86;95141.63;5057540;28;20233;-81
2023/10/08 08:27:53;;;;;;;6.65;3.60;;;;;;;20.72;41.83;95144.59;5038638;28;20202;-82
2023/10/08 08:30:19;;;;;;;5.35;3.20;;;;;;;20.72;41.77;95145.38;5039747;28;20706;-82
2023/10/08 08:32:48;;;;;;;9.98;3.20;;;;;;;20.73;42.30;95188.03;5037630;28;20201;-81
2023/10/08 08:35:16;;;;;;;10.30;3.97;;;;;;;20.67;42.61;95195.06;5028630;28;20229;-82
2023/10/08 08:37:43;;;;;;;8.70;4.40;;;;;;;20.63;42.75;95186.13;5037442;28;20198;-81
2023/10/08 08:40:17;;;;;;;8.77;4.78;;;;;;;20.62;42.55;95195.00;5036852;28;20253;-81
2023/10/08 08:42:46;;;;;;;9.82;3.35;;;;;;;20.65;42.49;95205.75;5020434;28;20245;-83
2023/10/08 08:45:17;;;;;;;6.65;3.22;;;;;;;20.67;42.68;95205.50;5035709;28;20623;-80
2023/10/08 08:47:45;;;;;;;8.65;3.38;;;;;;;20.69;42.86;95209.47;5037042;28;20202;-81
2023/10/08 08:50:11;;;;;;;6.65;3.28;;;;;;;20.67;42.94;95229.06;5035066;28;20225;-81
2023/10/08 08:52:38;;;;;;;5.88;3.33;;;;;;;20.67;43.02;95229.84;5036527;28;20201;-82
2023/10/08 08:55:09;;;;;;;4.28;3.17;;;;;;;20.73;43.23;95230.69;5035700;28;20202;-81
2023/10/08 08:57:39;;;;;;;11.60;3.30;;;;;;;20.69;43.55;95240.06;5036677;28;20264;-83
2023/10/08 09:00:11;;;;;;;6.97;3.28;;;;;;;20.64;43.24;95226.94;5037698;28;20214;-81
2023/10/08 09:02:38;;;;;;;8.30;3.28;;;;;;;20.58;43.50;95241.03;5037003;28;20198;-81
2023/10/08 09:05:13;;;;;;;5.70;3.10;;;;;;;20.66;43.47;95240.56;5034574;28;20208;-81
2023/10/08 09:07:54;;;;;;;7.50;3.40;;;;;;;20.63;43.50;95235.81;5049764;28;20205;-81
2023/10/08 09:10:26;;;;;;;10.13;3.72;;;;;;;20.72;43.50;95226.50;5041089;28;20268;-81
2023/10/08 09:12:52;;;;;;;5.95;3.13;;;;;;;20.73;43.42;95230.69;5036148;28;20241;-81
2023/10/08 09:15:22;;;;;;;9.00;3.72;;;;;;;20.70;43.57;95233.81;5036102;28;20317;-82
2023/10/08 09:17:49;;;;;;;9.23;6.43;;;;;;;20.78;43.96;95259.53;5036161;28;20484;-82
2023/10/08 09:20:15;;;;;;;6.82;3.60;;;;;;;20.82;43.83;95260.59;5034953;28;20237;-81
2023/10/08 09:22:42;;;;;;;9.63;3.50;;;;;;;20.84;43.69;95273.44;5036412;28;20207;-81
2023/10/08 09:25:09;;;;;;;6.68;3.63;;;;;;;20.88;43.84;95271.91;5036081;28;20212;-82
2023/10/08 09:27:37;;;;;;;7.85;3.38;;;;;;;20.87;43.67;95271.13;5036430;28;20556;-82
2023/10/08 09:30:08;;;;;;;8.52;3.47;;;;;;;20.90;44.55;95322.19;5035604;28;20245;-81
2023/10/08 09:32:40;;;;;;;7.70;3.53;;;;;;;20.95;44.00;95303.91;5036012;28;20228;-83
2023/10/08 09:35:09;;;;;;;7.65;3.25;;;;;;;20.97;44.09;95309.69;5034891;28;20198;-81
2023/10/08 09:37:37;;;;;;;9.88;3.55;;;;;;;20.98;44.53;95332.19;5032903;28;20210;-81
2023/10/08 09:40:08;;;;;;;8.63;3.55;;;;;;;21.04;44.28;95326.75;5035822;28;20309;-81
2023/10/08 09:42:36;;;;;;;8.23;3.13;;;;;;;21.08;44.11;95327.06;5020786;28;20290;-82
2023/10/08 09:45:05;;;;;;;7.32;3.40;;;;;;;21.15;44.52;95342.56;5033010;28;20205;-84
2023/10/08 09:47:37;;;;;;;7.55;3.40;;;;;;;21.22;44.19;95341.34;5026780;28;20207;-82
2023/10/08 09:50:07;;;;;;;11.02;3.78;;;;;;;21.31;43.67;95310.25;5035654;28;20245;-82
2023/10/08 09:52:44;;;;;;;7.72;3.55;;;;;;;21.40;44.07;95344.63;5033044;28;20198;-82
2023/10/08 09:55:11;;;;;;;9.05;3.50;;;;;;;21.46;44.25;95347.06;5034476;28;20197;-81
2023/10/08 09:57:38;;;;;;;15.82;8.80;;;;;;;21.50;44.48;95374.34;5028553;28;20199;-81
2023/10/08 10:00:14;;;;;;;11.77;7.32;;;;;;;21.57;44.43;95369.66;5014571;28;20274;-80
2023/10/08 10:02:42;;;;;;;11.52;6.40;;;;;;;21.60;45.09;95405.06;5025435;28;20336;-81
2023/10/08 10:05:12;;;;;;;15.10;4.70;;;;;;;21.65;45.48;95439.16;5034535;28;20202;-82
2023/10/08 10:07:41;;;;;;;10.32;4.53;;;;;;;21.73;45.28;95443.19;5034974;28;20240;-82
2023/10/08 10:10:26;;;;;;;10.55;4.20;;;;;;;21.71;45.74;95461.78;5032470;28;20226;-82
2023/10/08 10:12:52;;;;;;;6.25;3.30;;;;;;;21.65;44.93;95432.09;5033555;28;20233;-82
2023/10/08 10:15:21;;;;;;;7.28;3.65;;;;;;;21.65;44.79;95433.94;5033706;28;20198;-81
2023/10/08 10:17:50;;;;;;;10.88;3.80;;;;;;;21.60;44.90;95411.09;5033756;28;20206;-83
2023/10/08 10:20:16;;;;;;;9.40;3.63;;;;;;;21.63;44.90;95415.03;5034651;28;20287;-83
2023/10/08 10:22:44;;;;;;;11.43;5.07;;;;;;;21.60;44.36;95389.34;5034920;28;20213;-82
2023/10/08 10:25:17;;;;;;;13.35;8.40;;;;;;;21.57;44.63;95389.81;5048299;28;20297;-83
2023/10/08 10:28:04;;;;;;;10.23;4.75;;;;;;;21.55;44.40;95386.69;5034423;28;20239;-82
2023/10/08 10:30:32;;;;;;;14.00;4.10;;;;;;;21.47;45.33;95437.69;5034246;28;20226;-82
2023/10/08 10:33:01;;;;;;;8.88;4.10;;;;;;;21.47;45.21;95434.28;5034217;28;20209;-83
2023/10/08 10:35:29;;;;;;;8.13;3.72;;;;;;;21.38;45.74;95457.50;5034389;28;20205;-82
2023/10/08 10:38:03;;;;;;;7.10;3.17;;;;;;;21.37;45.92;95463.78;5033871;28;20209;-82
2023/10/08 10:40:38;;;;;;;9.43;3.72;;;;;;;21.34;46.00;95474.78;5033257;28;20272;-83
2023/10/08 10:43:06;;;;;;;9.68;3.47;;;;;;;21.28;45.94;95476.53;5027751;28;20585;-83
2023/10/08 10:45:36;;;;;;;9.35;3.35;;;;;;;21.30;45.85;95477.09;5034523;28;20246;-84
2023/10/08 10:48:20;;;;;;;11.18;3.42;;;;;;;21.24;45.85;95464.19;5033664;28;20734;-84
2023/10/08 10:53:32;;;;;;;7.03;3.10;;;;;;;21.23;45.95;95459.97;5033374;28;20205;-83
2023/10/08 10:56:05;;;;;;;9.18;3.63;;;;;;;21.15;45.82;95437.63;5034629;28;20198;-84
2023/10/08 10:58:39;;;;;;;8.98;3.67;;;;;;;21.14;46.38;95461.44;5032934;28;20244;-84
2023/10/08 11:01:07;;;;;;;8.43;3.53;;;;;;;21.14;45.99;95453.59;5034295;28;20236;-83
2023/10/08 11:03:34;;;;;;;7.80;3.25;;;;;;;21.20;46.22;95465.69;5026869;28;20311;-82
2023/10/08 11:06:05;;;;;;;7.53;3.33;;;;;;;21.21;45.90;95454.97;5014358;28;20199;-83
2023/10/08 11:08:35;;;;;;;10.25;3.40;;;;;;;21.14;46.16;95446.53;5024673;28;20750;-82
2023/10/08 11:11:05;;;;;;;8.00;3.17;;;;;;;21.08;46.07;95437.03;5032782;28;20206;-82
2023/10/08 11:13:37;;;;;;;11.82;3.58;;;;;;;21.11;46.43;95441.78;5030614;28;20517;-83
2023/10/08 11:16:05;;;;;;;10.38;3.78;;;;;;;21.13;46.27;95449.38;5032877;28;20205;-82
2023/10/08 11:18:32;;;;;;;8.50;3.28;;;;;;;21.08;46.50;95451.94;5032771;28;20210;-82
2023/10/08 11:21:15;;;;;;;14.20;3.83;;;;;;;21.07;46.71;95460.81;5032567;28;20229;-83
2023/10/08 11:23:53;;;;;;;5.53;3.17;;;;;;;21.11;46.80;95457.47;5040907;28;20190;-83
2023/10/08 11:26:21;;;;;;;7.75;3.50;;;;;;;21.16;46.50;95464.59;5024634;28;20198;-82
2023/10/08 11:28:48;;;;;;;17.73;10.27;;;;;;;21.16;46.91;95486.34;5027421;28;20241;-82
2023/10/08 11:31:19;;;;;;;8.55;4.30;;;;;;;21.22;46.56;95481.97;5027343;28;20203;-82
2023/10/08 11:33:53;;;;;;;9.13;4.53;;;;;;;21.23;46.75;95486.16;5020906;28;20842;-84
2023/10/08 11:36:27;;;;;;;12.52;4.03;;;;;;;21.24;46.91;95480.69;5021861;28;20194;-83
2023/10/08 11:39:00;;;;;;;10.20;3.55;;;;;;;21.23;46.51;95484.34;5022958;28;20249;-83
2023/10/08 11:41:28;;;;;;;17.52;6.88;;;;;;;21.19;47.38;95506.00;5017679;28;20211;-80
2023/10/08 11:43:58;;;;;;;18.23;8.45;;;;;;;21.16;47.46;95506.50;5021700;28;20241;-81
2023/10/08 11:46:27;;;;;;;9.60;3.90;;;;;;;21.20;46.89;95478.78;5020155;28;20225;-81
2023/10/08 11:48:57;;;;;;;8.00;3.97;;;;;;;21.22;46.68;95466.25;5032683;28;20214;-82
2023/10/08 11:51:25;;;;;;;12.07;3.70;;;;;;;21.23;46.91;95473.06;5034687;28;20190;-82
2023/10/08 11:53:53;;;;;;;12.02;3.83;;;;;;;21.24;46.73;95462.34;5033429;28;20194;-82
2023/10/08 11:56:23;;;;;;;9.52;3.30;;;;;;;21.20;46.73;95469.13;5034251;28;20198;-82